Brive-Souillac

LFSL · Corrèze, Nouvelle-Aquitaine, 法国

罗盘
风向 的 Brive-Souillac 11/29
风: 0 kt, 0 beaufort


改变
0 1.000 2.000 3.000 4.000 5.000
FEW 1.700 ft
SCT 3.200 ft
OVC 4.800 ft
METAR LFSL 040230Z AUTO 00000KT 5000 BR FEW017 SCT032 OVC048 04/03 Q1007

METAR Brive-Souillac - LFSL/BVE

Brive-Souillac是,法国中的中型机场。 该机场有一条跑道: 11/29. 该领域的国际民航组织标志是LFSL 它的国际航空运输协会代码是BVE.

这份报告是针对2022年12月4日 03:30, 当地时间在Brive-Souillac进行的。

机场观察

可变方向的风很小或没有风。

可见度为5 km。

有几云在1.700 ft的高度, 疏云,零星散落的云朵在3.200 ft的高度 和 乌云密布在4.800 ft的高度。 破损或更高的上限为4.800 ft。

当前天气为薄雾。 温度和风寒是4 °C。 露点为3 °C,相对湿度为93%。 海平面上的气压为1007 hPa (QNH)。

白天

今天,太阳从08:15升起,在17:13降落。 这适用于Brive-Souillac,世界夏令时可能有所不同。 当地时间与世界标准时间之间的时差为+1 小时。 当前,没有夏令时有效。

公司介绍

我们没有关于这个机场的公司信息。

体会

到Vliegles.nl去找飞行课程,跳伞和其他飞行体验。 浏览页面,了解Brive-Souillac附近所有可用的活动。 你也可以使用搜索功能来寻找你所在地附近的特定飞行课程、跳伞或其他飞行体验。

跑道

Id 标题 侧风 逆风 侧风 %
11/29 115°-295°

逆风成分最大的方向会被突出显示,并用于横风计算。 这并不一定意味着这个方向在使用。

乌云

1.700 ft FEW 几云
3.200 ft SCT 疏云,零星散落的云朵
4.800 ft OVC 乌云密布

温度 & 天气

天气 薄雾
温度 4 °C
露点 3 °C
相对湿度 93%
Kp-index 1 (0-9)

白天

日出
08:15 (4:21)
中午
12:44
日落
17:13

小工具

你想在你的网站上有一个关于Brive-Souillac的当前航空天气(METAR)的小部件吗?

显示HTML代码

我们和第三方通过cookies跟踪您在我们网站上的互联网行为。如果你继续,我们认为你同意我们的饼干政策